sensor_id;sensor_type;location;lat;lon;timestamp;P1;durP1;ratioP1;P2;durP2;ratioP2
22007;SDS011;11168;56.976;24.168;2023-06-04T00:02:17;3.25;;;1.20;;
22007;SDS011;11168;56.976;24.168;2023-06-04T00:04:44;4.95;;;1.38;;
22007;SDS011;11168;56.976;24.168;2023-06-04T00:07:12;3.10;;;1.08;;
22007;SDS011;11168;56.976;24.168;2023-06-04T00:09:38;3.20;;;1.40;;
22007;SDS011;11168;56.976;24.168;2023-06-04T00:12:06;3.97;;;1.17;;
22007;SDS011;11168;56.976;24.168;2023-06-04T00:14:33;3.35;;;1.10;;
22007;SDS011;11168;56.976;24.168;2023-06-04T00:17:00;2.58;;;1.30;;
22007;SDS011;11168;56.976;24.168;2023-06-04T00:19:27;2.40;;;1.10;;
22007;SDS011;11168;56.976;24.168;2023-06-04T00:21:54;6.13;;;1.48;;
22007;SDS011;11168;56.976;24.168;2023-06-04T00:24:21;3.33;;;1.13;;
22007;SDS011;11168;56.976;24.168;2023-06-04T00:26:48;3.55;;;1.40;;
22007;SDS011;11168;56.976;24.168;2023-06-04T00:29:15;4.15;;;1.30;;
22007;SDS011;11168;56.976;24.168;2023-06-04T00:31:42;6.88;;;1.17;;
22007;SDS011;11168;56.976;24.168;2023-06-04T00:34:10;4.82;;;1.20;;
22007;SDS011;11168;56.976;24.168;2023-06-04T00:36:37;2.80;;;1.60;;
22007;SDS011;11168;56.976;24.168;2023-06-04T00:39:05;1.90;;;1.20;;
22007;SDS011;11168;56.976;24.168;2023-06-04T00:41:32;4.65;;;1.25;;
22007;SDS011;11168;56.976;24.168;2023-06-04T00:43:59;3.25;;;1.08;;
22007;SDS011;11168;56.976;24.168;2023-06-04T00:46:28;5.90;;;1.20;;
22007;SDS011;11168;56.976;24.168;2023-06-04T00:48:55;4.57;;;1.33;;
22007;SDS011;11168;56.976;24.168;2023-06-04T00:51:22;5.40;;;1.00;;
22007;SDS011;11168;56.976;24.168;2023-06-04T00:53:49;5.75;;;1.40;;
22007;SDS011;11168;56.976;24.168;2023-06-04T00:56:17;3.25;;;1.08;;
22007;SDS011;11168;56.976;24.168;2023-06-04T00:58:45;2.35;;;1.13;;
22007;SDS011;11168;56.976;24.168;2023-06-04T01:01:37;2.50;;;1.33;;
22007;SDS011;11168;56.976;24.168;2023-06-04T01:04:04;4.55;;;1.05;;
22007;SDS011;11168;56.976;24.168;2023-06-04T01:06:39;5.13;;;1.15;;
22007;SDS011;11168;56.976;24.168;2023-06-04T01:09:09;3.53;;;1.35;;
22007;SDS011;11168;56.976;24.168;2023-06-04T01:11:37;2.88;;;1.10;;
22007;SDS011;11168;56.976;24.168;2023-06-04T01:14:07;2.97;;;1.08;;
22007;SDS011;11168;56.976;24.168;2023-06-04T01:16:47;4.25;;;1.17;;
22007;SDS011;11168;56.976;24.168;2023-06-04T01:23:14;4.18;;;1.23;;
22007;SDS011;11168;56.976;24.168;2023-06-04T01:25:33;6.05;;;1.10;;
22007;SDS011;11168;56.976;24.168;2023-06-04T01:28:11;4.65;;;1.10;;
22007;SDS011;11168;56.976;24.168;2023-06-04T01:30:43;3.53;;;1.20;;
22007;SDS011;11168;56.976;24.168;2023-06-04T01:33:16;2.67;;;0.90;;
22007;SDS011;11168;56.976;24.168;2023-06-04T01:35:44;2.75;;;1.17;;
22007;SDS011;11168;56.976;24.168;2023-06-04T01:38:11;3.45;;;1.08;;
22007;SDS011;11168;56.976;24.168;2023-06-04T01:40:38;1.90;;;1.02;;
22007;SDS011;11168;56.976;24.168;2023-06-04T01:43:07;4.78;;;1.00;;
22007;SDS011;11168;56.976;24.168;2023-06-04T01:45:34;3.50;;;1.05;;
22007;SDS011;11168;56.976;24.168;2023-06-04T01:48:02;3.28;;;1.13;;
22007;SDS011;11168;56.976;24.168;2023-06-04T01:50:30;3.63;;;1.50;;
22007;SDS011;11168;56.976;24.168;2023-06-04T01:52:58;3.78;;;1.02;;
22007;SDS011;11168;56.976;24.168;2023-06-04T01:55:26;1.23;;;1.00;;
22007;SDS011;11168;56.976;24.168;2023-06-04T01:57:55;1.40;;;0.90;;
22007;SDS011;11168;56.976;24.168;2023-06-04T02:00:22;2.25;;;0.85;;
22007;SDS011;11168;56.976;24.168;2023-06-04T02:02:50;2.47;;;1.27;;
22007;SDS011;11168;56.976;24.168;2023-06-04T02:05:17;3.30;;;1.00;;
22007;SDS011;11168;56.976;24.168;2023-06-04T02:07:44;2.00;;;0.95;;
22007;SDS011;11168;56.976;24.168;2023-06-04T02:10:15;3.20;;;0.90;;
22007;SDS011;11168;56.976;24.168;2023-06-04T02:12:53;2.90;;;0.93;;
22007;SDS011;11168;56.976;24.168;2023-06-04T02:15:24;3.22;;;1.10;;
22007;SDS011;11168;56.976;24.168;2023-06-04T02:17:56;4.43;;;1.00;;
22007;SDS011;11168;56.976;24.168;2023-06-04T02:20:29;3.10;;;1.02;;
22007;SDS011;11168;56.976;24.168;2023-06-04T02:22:56;3.55;;;1.05;;
22007;SDS011;11168;56.976;24.168;2023-06-04T02:25:23;2.25;;;1.40;;
22007;SDS011;11168;56.976;24.168;2023-06-04T02:27:50;2.95;;;1.00;;
22007;SDS011;11168;56.976;24.168;2023-06-04T02:30:17;2.63;;;1.00;;
22007;SDS011;11168;56.976;24.168;2023-06-04T02:32:44;5.70;;;1.27;;
22007;SDS011;11168;56.976;24.168;2023-06-04T02:35:18;2.70;;;0.90;;
22007;SDS011;11168;56.976;24.168;2023-06-04T02:37:47;4.47;;;1.05;;
22007;SDS011;11168;56.976;24.168;2023-06-04T02:40:15;2.90;;;1.20;;
22007;SDS011;11168;56.976;24.168;2023-06-04T02:42:42;5.30;;;1.00;;
22007;SDS011;11168;56.976;24.168;2023-06-04T02:45:10;4.40;;;1.33;;
22007;SDS011;11168;56.976;24.168;2023-06-04T02:47:37;3.80;;;1.00;;
22007;SDS011;11168;56.976;24.168;2023-06-04T02:50:04;3.75;;;0.90;;
22007;SDS011;11168;56.976;24.168;2023-06-04T02:52:32;6.95;;;1.20;;
22007;SDS011;11168;56.976;24.168;2023-06-04T02:54:59;6.22;;;1.10;;
22007;SDS011;11168;56.976;24.168;2023-06-04T02:57:29;1.67;;;0.95;;
22007;SDS011;11168;56.976;24.168;2023-06-04T02:59:56;2.70;;;1.08;;
22007;SDS011;11168;56.976;24.168;2023-06-04T03:02:23;1.98;;;1.10;;
22007;SDS011;11168;56.976;24.168;2023-06-04T03:04:51;3.28;;;0.90;;
22007;SDS011;11168;56.976;24.168;2023-06-04T03:07:21;2.10;;;0.90;;
22007;SDS011;11168;56.976;24.168;2023-06-04T03:09:49;4.80;;;1.40;;
22007;SDS011;11168;56.976;24.168;2023-06-04T03:12:16;1.92;;;0.90;;
22007;SDS011;11168;56.976;24.168;2023-06-04T03:14:43;2.90;;;1.17;;
22007;SDS011;11168;56.976;24.168;2023-06-04T03:17:10;1.63;;;0.93;;
22007;SDS011;11168;56.976;24.168;2023-06-04T03:19:38;2.00;;;0.90;;
22007;SDS011;11168;56.976;24.168;2023-06-04T03:22:07;3.72;;;1.00;;
22007;SDS011;11168;56.976;24.168;2023-06-04T03:24:36;2.75;;;1.20;;
22007;SDS011;11168;56.976;24.168;2023-06-04T03:27:07;2.17;;;1.10;;
22007;SDS011;11168;56.976;24.168;2023-06-04T03:29:35;4.95;;;1.13;;
22007;SDS011;11168;56.976;24.168;2023-06-04T03:32:03;4.05;;;1.10;;
22007;SDS011;11168;56.976;24.168;2023-06-04T03:34:30;4.93;;;1.00;;
22007;SDS011;11168;56.976;24.168;2023-06-04T03:37:01;4.10;;;1.13;;
22007;SDS011;11168;56.976;24.168;2023-06-04T03:39:28;5.25;;;1.25;;
22007;SDS011;11168;56.976;24.168;2023-06-04T03:41:55;2.88;;;1.00;;
22007;SDS011;11168;56.976;24.168;2023-06-04T03:44:22;2.97;;;1.00;;
22007;SDS011;11168;56.976;24.168;2023-06-04T03:46:49;2.15;;;1.10;;
22007;SDS011;11168;56.976;24.168;2023-06-04T03:49:16;2.20;;;0.98;;
22007;SDS011;11168;56.976;24.168;2023-06-04T03:51:44;6.05;;;1.10;;
22007;SDS011;11168;56.976;24.168;2023-06-04T03:54:11;3.17;;;1.20;;
22007;SDS011;11168;56.976;24.168;2023-06-04T03:56:38;2.03;;;1.00;;
22007;SDS011;11168;56.976;24.168;2023-06-04T03:59:05;2.58;;;1.08;;
22007;SDS011;11168;56.976;24.168;2023-06-04T04:01:32;1.92;;;0.93;;
22007;SDS011;11168;56.976;24.168;2023-06-04T04:03:59;3.70;;;0.90;;
22007;SDS011;11168;56.976;24.168;2023-06-04T04:06:27;2.47;;;0.82;;
22007;SDS011;11168;56.976;24.168;2023-06-04T04:08:54;2.97;;;0.98;;
22007;SDS011;11168;56.976;24.168;2023-06-04T04:11:21;2.28;;;1.05;;
22007;SDS011;11168;56.976;24.168;2023-06-04T04:13:48;1.52;;;1.00;;
22007;SDS011;11168;56.976;24.168;2023-06-04T04:16:15;4.93;;;1.00;;
22007;SDS011;11168;56.976;24.168;2023-06-04T04:18:43;3.70;;;1.10;;
22007;SDS011;11168;56.976;24.168;2023-06-04T04:21:11;2.58;;;1.13;;
22007;SDS011;11168;56.976;24.168;2023-06-04T04:23:38;2.28;;;0.90;;
22007;SDS011;11168;56.976;24.168;2023-06-04T04:26:08;2.15;;;0.80;;
22007;SDS011;11168;56.976;24.168;2023-06-04T04:28:36;3.80;;;1.10;;
22007;SDS011;11168;56.976;24.168;2023-06-04T04:31:04;2.20;;;1.00;;
22007;SDS011;11168;56.976;24.168;2023-06-04T04:33:33;1.75;;;0.80;;
22007;SDS011;11168;56.976;24.168;2023-06-04T04:36:06;3.97;;;0.88;;
22007;SDS011;11168;56.976;24.168;2023-06-04T04:38:39;2.63;;;1.00;;
22007;SDS011;11168;56.976;24.168;2023-06-04T04:41:06;2.90;;;1.10;;
22007;SDS011;11168;56.976;24.168;2023-06-04T04:43:35;2.38;;;0.80;;
22007;SDS011;11168;56.976;24.168;2023-06-04T04:46:05;2.85;;;1.38;;
22007;SDS011;11168;56.976;24.168;2023-06-04T04:48:33;2.03;;;1.40;;
22007;SDS011;11168;56.976;24.168;2023-06-04T04:51:00;2.72;;;1.33;;
22007;SDS011;11168;56.976;24.168;2023-06-04T04:53:27;2.80;;;1.48;;
22007;SDS011;11168;56.976;24.168;2023-06-04T04:55:54;2.15;;;1.00;;
22007;SDS011;11168;56.976;24.168;2023-06-04T04:58:21;3.03;;;1.17;;
22007;SDS011;11168;56.976;24.168;2023-06-04T05:00:48;3.75;;;1.10;;
22007;SDS011;11168;56.976;24.168;2023-06-04T05:03:16;4.47;;;1.05;;
22007;SDS011;11168;56.976;24.168;2023-06-04T05:05:43;3.92;;;1.40;;
22007;SDS011;11168;56.976;24.168;2023-06-04T05:08:10;2.28;;;1.13;;
22007;SDS011;11168;56.976;24.168;2023-06-04T05:10:37;2.80;;;1.30;;
22007;SDS011;11168;56.976;24.168;2023-06-04T05:13:04;3.45;;;1.27;;
22007;SDS011;11168;56.976;24.168;2023-06-04T05:15:32;2.75;;;1.40;;
22007;SDS011;11168;56.976;24.168;2023-06-04T05:17:59;3.35;;;1.27;;
22007;SDS011;11168;56.976;24.168;2023-06-04T05:20:30;2.30;;;1.10;;
22007;SDS011;11168;56.976;24.168;2023-06-04T05:22:57;1.52;;;1.05;;
22007;SDS011;11168;56.976;24.168;2023-06-04T05:25:24;1.60;;;1.00;;
22007;SDS011;11168;56.976;24.168;2023-06-04T05:27:53;4.50;;;1.17;;
22007;SDS011;11168;56.976;24.168;2023-06-04T05:30:20;1.67;;;0.90;;
22007;SDS011;11168;56.976;24.168;2023-06-04T05:32:48;1.73;;;0.85;;
22007;SDS011;11168;56.976;24.168;2023-06-04T05:35:17;1.90;;;1.00;;
22007;SDS011;11168;56.976;24.168;2023-06-04T05:37:44;3.83;;;1.00;;
22007;SDS011;11168;56.976;24.168;2023-06-04T05:40:12;1.77;;;0.80;;
22007;SDS011;11168;56.976;24.168;2023-06-04T05:42:40;2.35;;;0.80;;
22007;SDS011;11168;56.976;24.168;2023-06-04T05:45:07;1.55;;;0.93;;
22007;SDS011;11168;56.976;24.168;2023-06-04T05:47:36;2.60;;;0.90;;
22007;SDS011;11168;56.976;24.168;2023-06-04T05:50:03;4.03;;;0.93;;
22007;SDS011;11168;56.976;24.168;2023-06-04T05:52:32;2.08;;;0.98;;
22007;SDS011;11168;56.976;24.168;2023-06-04T05:55:03;1.45;;;0.80;;
22007;SDS011;11168;56.976;24.168;2023-06-04T05:57:34;4.68;;;0.80;;
22007;SDS011;11168;56.976;24.168;2023-06-04T06:00:01;5.55;;;0.88;;
22007;SDS011;11168;56.976;24.168;2023-06-04T06:02:29;1.52;;;0.80;;
22007;SDS011;11168;56.976;24.168;2023-06-04T06:04:58;1.17;;;0.55;;
22007;SDS011;11168;56.976;24.168;2023-06-04T06:07:25;3.47;;;0.70;;
22007;SDS011;11168;56.976;24.168;2023-06-04T06:09:53;2.42;;;0.65;;
22007;SDS011;11168;56.976;24.168;2023-06-04T06:12:20;3.50;;;0.80;;
22007;SDS011;11168;56.976;24.168;2023-06-04T06:14:47;2.15;;;0.80;;
22007;SDS011;11168;56.976;24.168;2023-06-04T06:17:14;2.80;;;0.75;;
22007;SDS011;11168;56.976;24.168;2023-06-04T06:19:41;1.60;;;0.68;;
22007;SDS011;11168;56.976;24.168;2023-06-04T06:22:08;1.52;;;0.75;;
22007;SDS011;11168;56.976;24.168;2023-06-04T06:24:35;1.55;;;0.70;;
22007;SDS011;11168;56.976;24.168;2023-06-04T06:27:02;3.50;;;1.08;;
22007;SDS011;11168;56.976;24.168;2023-06-04T06:29:29;3.63;;;0.80;;
22007;SDS011;11168;56.976;24.168;2023-06-04T06:31:56;2.15;;;0.93;;
22007;SDS011;11168;56.976;24.168;2023-06-04T06:34:23;2.38;;;0.73;;
22007;SDS011;11168;56.976;24.168;2023-06-04T06:36:50;2.13;;;0.50;;
22007;SDS011;11168;56.976;24.168;2023-06-04T06:39:17;2.33;;;0.70;;
22007;SDS011;11168;56.976;24.168;2023-06-04T06:41:45;2.28;;;0.80;;
22007;SDS011;11168;56.976;24.168;2023-06-04T06:44:12;1.15;;;0.60;;
22007;SDS011;11168;56.976;24.168;2023-06-04T06:46:39;2.08;;;0.80;;
22007;SDS011;11168;56.976;24.168;2023-06-04T06:49:06;1.33;;;0.60;;
22007;SDS011;11168;56.976;24.168;2023-06-04T06:51:33;2.13;;;0.70;;
22007;SDS011;11168;56.976;24.168;2023-06-04T06:54:00;4.43;;;0.70;;
22007;SDS011;11168;56.976;24.168;2023-06-04T06:56:27;3.67;;;1.05;;
22007;SDS011;11168;56.976;24.168;2023-06-04T06:58:54;1.92;;;0.70;;
22007;SDS011;11168;56.976;24.168;2023-06-04T07:01:21;1.50;;;0.73;;
22007;SDS011;11168;56.976;24.168;2023-06-04T07:03:49;1.48;;;0.60;;
22007;SDS011;11168;56.976;24.168;2023-06-04T07:06:16;1.65;;;0.70;;
22007;SDS011;11168;56.976;24.168;2023-06-04T07:08:43;1.92;;;0.80;;
22007;SDS011;11168;56.976;24.168;2023-06-04T07:11:10;1.70;;;0.73;;
22007;SDS011;11168;56.976;24.168;2023-06-04T07:13:41;2.30;;;0.70;;
22007;SDS011;11168;56.976;24.168;2023-06-04T07:16:08;2.92;;;0.80;;
22007;SDS011;11168;56.976;24.168;2023-06-04T07:18:35;1.55;;;0.75;;
22007;SDS011;11168;56.976;24.168;2023-06-04T07:21:02;2.83;;;0.98;;
22007;SDS011;11168;56.976;24.168;2023-06-04T07:23:29;1.63;;;0.90;;
22007;SDS011;11168;56.976;24.168;2023-06-04T07:25:55;5.18;;;0.73;;
22007;SDS011;11168;56.976;24.168;2023-06-04T07:28:23;2.55;;;0.90;;
22007;SDS011;11168;56.976;24.168;2023-06-04T07:30:50;3.42;;;0.80;;
22007;SDS011;11168;56.976;24.168;2023-06-04T07:33:17;2.83;;;0.68;;
22007;SDS011;11168;56.976;24.168;2023-06-04T07:35:44;1.80;;;0.93;;
22007;SDS011;11168;56.976;24.168;2023-06-04T07:38:11;2.30;;;0.63;;
22007;SDS011;11168;56.976;24.168;2023-06-04T07:40:38;2.10;;;0.70;;
22007;SDS011;11168;56.976;24.168;2023-06-04T07:43:05;1.85;;;0.85;;
22007;SDS011;11168;56.976;24.168;2023-06-04T07:45:32;1.15;;;0.88;;
22007;SDS011;11168;56.976;24.168;2023-06-04T07:48:01;5.13;;;1.00;;
22007;SDS011;11168;56.976;24.168;2023-06-04T07:50:28;3.22;;;0.70;;
22007;SDS011;11168;56.976;24.168;2023-06-04T07:53:00;2.25;;;1.00;;
22007;SDS011;11168;56.976;24.168;2023-06-04T07:55:26;3.47;;;1.05;;
22007;SDS011;11168;56.976;24.168;2023-06-04T07:57:54;1.88;;;1.10;;
22007;SDS011;11168;56.976;24.168;2023-06-04T08:00:21;1.38;;;1.00;;
22007;SDS011;11168;56.976;24.168;2023-06-04T08:02:48;4.07;;;1.10;;
22007;SDS011;11168;56.976;24.168;2023-06-04T08:05:17;5.68;;;1.20;;
22007;SDS011;11168;56.976;24.168;2023-06-04T08:07:45;3.72;;;0.85;;
22007;SDS011;11168;56.976;24.168;2023-06-04T08:10:13;3.40;;;0.90;;
22007;SDS011;11168;56.976;24.168;2023-06-04T08:12:40;2.10;;;0.82;;
22007;SDS011;11168;56.976;24.168;2023-06-04T08:15:07;3.15;;;0.85;;
22007;SDS011;11168;56.976;24.168;2023-06-04T08:17:35;3.10;;;0.98;;
22007;SDS011;11168;56.976;24.168;2023-06-04T08:20:02;1.83;;;0.88;;
22007;SDS011;11168;56.976;24.168;2023-06-04T08:22:32;2.50;;;0.80;;
22007;SDS011;11168;56.976;24.168;2023-06-04T08:24:59;1.45;;;0.77;;
22007;SDS011;11168;56.976;24.168;2023-06-04T08:27:26;1.67;;;0.80;;
22007;SDS011;11168;56.976;24.168;2023-06-04T08:29:53;1.50;;;0.80;;
22007;SDS011;11168;56.976;24.168;2023-06-04T08:32:21;2.08;;;0.90;;
22007;SDS011;11168;56.976;24.168;2023-06-04T08:34:48;4.20;;;0.93;;
22007;SDS011;11168;56.976;24.168;2023-06-04T08:37:18;4.20;;;0.90;;
22007;SDS011;11168;56.976;24.168;2023-06-04T08:39:45;3.53;;;0.98;;
22007;SDS011;11168;56.976;24.168;2023-06-04T08:42:17;3.10;;;1.15;;
22007;SDS011;11168;56.976;24.168;2023-06-04T08:44:52;3.45;;;1.00;;
22007;SDS011;11168;56.976;24.168;2023-06-04T08:47:19;1.63;;;0.80;;
22007;SDS011;11168;56.976;24.168;2023-06-04T08:49:49;2.92;;;1.02;;
22007;SDS011;11168;56.976;24.168;2023-06-04T08:52:19;2.53;;;0.95;;
22007;SDS011;11168;56.976;24.168;2023-06-04T08:54:49;5.07;;;1.05;;
22007;SDS011;11168;56.976;24.168;2023-06-04T08:57:20;3.55;;;1.00;;
22007;SDS011;11168;56.976;24.168;2023-06-04T08:59:48;6.30;;;1.00;;
22007;SDS011;11168;56.976;24.168;2023-06-04T09:02:16;5.63;;;1.15;;
22007;SDS011;11168;56.976;24.168;2023-06-04T09:04:44;3.88;;;0.98;;
22007;SDS011;11168;56.976;24.168;2023-06-04T09:07:12;4.70;;;0.93;;
22007;SDS011;11168;56.976;24.168;2023-06-04T09:09:40;7.97;;;0.90;;
22007;SDS011;11168;56.976;24.168;2023-06-04T09:12:16;3.72;;;1.15;;
22007;SDS011;11168;56.976;24.168;2023-06-04T09:14:48;4.57;;;0.98;;
22007;SDS011;11168;56.976;24.168;2023-06-04T09:17:23;5.95;;;1.30;;
22007;SDS011;11168;56.976;24.168;2023-06-04T09:19:51;1.60;;;0.82;;
22007;SDS011;11168;56.976;24.168;2023-06-04T09:22:18;2.85;;;0.95;;
22007;SDS011;11168;56.976;24.168;2023-06-04T09:24:45;4.00;;;1.08;;
22007;SDS011;11168;56.976;24.168;2023-06-04T09:27:17;2.03;;;1.00;;
22007;SDS011;11168;56.976;24.168;2023-06-04T09:29:48;2.53;;;1.02;;
22007;SDS011;11168;56.976;24.168;2023-06-04T09:32:21;3.25;;;1.00;;
22007;SDS011;11168;56.976;24.168;2023-06-04T09:35:08;2.20;;;1.05;;
22007;SDS011;11168;56.976;24.168;2023-06-04T09:37:35;4.03;;;1.15;;
22007;SDS011;11168;56.976;24.168;2023-06-04T09:40:02;3.70;;;1.38;;
22007;SDS011;11168;56.976;24.168;2023-06-04T09:42:45;3.20;;;1.10;;
22007;SDS011;11168;56.976;24.168;2023-06-04T09:45:26;4.18;;;1.38;;
22007;SDS011;11168;56.976;24.168;2023-06-04T09:47:55;2.67;;;1.10;;
22007;SDS011;11168;56.976;24.168;2023-06-04T09:50:26;10.73;;;1.30;;
22007;SDS011;11168;56.976;24.168;2023-06-04T09:52:54;3.75;;;1.25;;
22007;SDS011;11168;56.976;24.168;2023-06-04T09:55:21;3.42;;;1.27;;
22007;SDS011;11168;56.976;24.168;2023-06-04T09:57:49;1.67;;;1.30;;
22007;SDS011;11168;56.976;24.168;2023-06-04T10:00:21;5.47;;;1.50;;
22007;SDS011;11168;56.976;24.168;2023-06-04T10:02:50;3.10;;;1.35;;
22007;SDS011;11168;56.976;24.168;2023-06-04T10:05:23;2.38;;;1.20;;
22007;SDS011;11168;56.976;24.168;2023-06-04T10:07:51;3.22;;;1.27;;
22007;SDS011;11168;56.976;24.168;2023-06-04T10:10:23;2.42;;;1.30;;
22007;SDS011;11168;56.976;24.168;2023-06-04T10:13:05;4.95;;;1.50;;
22007;SDS011;11168;56.976;24.168;2023-06-04T10:15:36;1.65;;;1.02;;
22007;SDS011;11168;56.976;24.168;2023-06-04T10:18:04;4.72;;;1.10;;
22007;SDS011;11168;56.976;24.168;2023-06-04T10:20:32;3.00;;;1.00;;
22007;SDS011;11168;56.976;24.168;2023-06-04T10:23:00;5.47;;;1.20;;
22007;SDS011;11168;56.976;24.168;2023-06-04T10:25:27;4.28;;;1.33;;
22007;SDS011;11168;56.976;24.168;2023-06-04T10:27:54;1.90;;;1.30;;
22007;SDS011;11168;56.976;24.168;2023-06-04T10:30:22;3.72;;;1.50;;
22007;SDS011;11168;56.976;24.168;2023-06-04T10:32:50;2.10;;;1.15;;
22007;SDS011;11168;56.976;24.168;2023-06-04T10:35:17;2.67;;;1.17;;
22007;SDS011;11168;56.976;24.168;2023-06-04T10:37:44;3.25;;;1.20;;
22007;SDS011;11168;56.976;24.168;2023-06-04T10:40:14;3.67;;;1.40;;
22007;SDS011;11168;56.976;24.168;2023-06-04T10:42:42;5.45;;;1.35;;
22007;SDS011;11168;56.976;24.168;2023-06-04T10:45:10;3.03;;;1.30;;
22007;SDS011;11168;56.976;24.168;2023-06-04T10:47:38;3.63;;;1.25;;
22007;SDS011;11168;56.976;24.168;2023-06-04T10:50:08;3.13;;;1.20;;
22007;SDS011;11168;56.976;24.168;2023-06-04T10:52:38;2.20;;;1.08;;
22007;SDS011;11168;56.976;24.168;2023-06-04T10:55:16;2.58;;;0.98;;
22007;SDS011;11168;56.976;24.168;2023-06-04T11:00:19;4.10;;;1.10;;
22007;SDS011;11168;56.976;24.168;2023-06-04T11:02:53;5.72;;;1.02;;
22007;SDS011;11168;56.976;24.168;2023-06-04T11:05:22;2.05;;;1.08;;
22007;SDS011;11168;56.976;24.168;2023-06-04T11:07:59;3.28;;;1.30;;
22007;SDS011;11168;56.976;24.168;2023-06-04T11:10:31;1.75;;;0.95;;
22007;SDS011;11168;56.976;24.168;2023-06-04T11:13:00;3.65;;;1.40;;
22007;SDS011;11168;56.976;24.168;2023-06-04T11:15:36;5.55;;;1.30;;
22007;SDS011;11168;56.976;24.168;2023-06-04T11:18:19;5.30;;;1.33;;
22007;SDS011;11168;56.976;24.168;2023-06-04T11:20:48;3.95;;;1.20;;
22007;SDS011;11168;56.976;24.168;2023-06-04T11:23:16;4.85;;;1.50;;
22007;SDS011;11168;56.976;24.168;2023-06-04T11:25:44;3.22;;;1.33;;
22007;SDS011;11168;56.976;24.168;2023-06-04T11:28:15;4.50;;;2.25;;
22007;SDS011;11168;56.976;24.168;2023-06-04T11:33:44;5.15;;;1.60;;
22007;SDS011;11168;56.976;24.168;2023-06-04T11:36:45;4.53;;;1.17;;
22007;SDS011;11168;56.976;24.168;2023-06-04T11:39:05;2.63;;;1.30;;
22007;SDS011;11168;56.976;24.168;2023-06-04T11:41:33;4.20;;;1.27;;
22007;SDS011;11168;56.976;24.168;2023-06-04T11:44:02;4.43;;;1.23;;
22007;SDS011;11168;56.976;24.168;2023-06-04T11:46:34;4.15;;;1.35;;
22007;SDS011;11168;56.976;24.168;2023-06-04T11:49:02;5.57;;;1.20;;
22007;SDS011;11168;56.976;24.168;2023-06-04T11:51:29;3.20;;;1.63;;
22007;SDS011;11168;56.976;24.168;2023-06-04T11:53:57;5.20;;;1.75;;
22007;SDS011;11168;56.976;24.168;2023-06-04T11:56:24;3.67;;;2.15;;
22007;SDS011;11168;56.976;24.168;2023-06-04T11:58:54;6.70;;;2.25;;
22007;SDS011;11168;56.976;24.168;2023-06-04T12:01:21;6.03;;;2.53;;
22007;SDS011;11168;56.976;24.168;2023-06-04T12:03:49;5.72;;;2.35;;
22007;SDS011;11168;56.976;24.168;2023-06-04T12:06:17;5.20;;;2.00;;
22007;SDS011;11168;56.976;24.168;2023-06-04T12:11:35;6.10;;;2.15;;
22007;SDS011;11168;56.976;24.168;2023-06-04T12:14:05;2.92;;;2.20;;
22007;SDS011;11168;56.976;24.168;2023-06-04T12:16:33;5.55;;;2.53;;
22007;SDS011;11168;56.976;24.168;2023-06-04T12:19:07;8.38;;;2.55;;
22007;SDS011;11168;56.976;24.168;2023-06-04T12:21:36;5.15;;;2.42;;
22007;SDS011;11168;56.976;24.168;2023-06-04T12:24:09;5.82;;;2.78;;
22007;SDS011;11168;56.976;24.168;2023-06-04T12:26:37;6.18;;;2.80;;
22007;SDS011;11168;56.976;24.168;2023-06-04T12:29:11;5.70;;;2.97;;
22007;SDS011;11168;56.976;24.168;2023-06-04T12:31:42;5.82;;;2.92;;
22007;SDS011;11168;56.976;24.168;2023-06-04T12:34:13;7.00;;;3.40;;
22007;SDS011;11168;56.976;24.168;2023-06-04T12:36:40;6.15;;;3.22;;
22007;SDS011;11168;56.976;24.168;2023-06-04T12:39:09;7.05;;;2.95;;
22007;SDS011;11168;56.976;24.168;2023-06-04T12:41:36;5.13;;;2.53;;
22007;SDS011;11168;56.976;24.168;2023-06-04T12:44:03;4.93;;;2.35;;
22007;SDS011;11168;56.976;24.168;2023-06-04T12:46:30;4.68;;;2.40;;
22007;SDS011;11168;56.976;24.168;2023-06-04T12:48:57;3.50;;;2.10;;
22007;SDS011;11168;56.976;24.168;2023-06-04T12:51:25;4.97;;;2.10;;
22007;SDS011;11168;56.976;24.168;2023-06-04T12:53:52;6.15;;;2.10;;
22007;SDS011;11168;56.976;24.168;2023-06-04T12:56:19;6.95;;;2.10;;
22007;SDS011;11168;56.976;24.168;2023-06-04T12:58:46;3.55;;;1.38;;
22007;SDS011;11168;56.976;24.168;2023-06-04T13:01:14;4.57;;;1.63;;
22007;SDS011;11168;56.976;24.168;2023-06-04T13:03:41;1.85;;;1.35;;
22007;SDS011;11168;56.976;24.168;2023-06-04T13:06:08;2.63;;;1.10;;
22007;SDS011;11168;56.976;24.168;2023-06-04T13:08:36;3.25;;;1.20;;
22007;SDS011;11168;56.976;24.168;2023-06-04T13:11:03;6.15;;;1.02;;
22007;SDS011;11168;56.976;24.168;2023-06-04T13:13:31;3.38;;;1.02;;
22007;SDS011;11168;56.976;24.168;2023-06-04T13:15:58;2.00;;;0.82;;
22007;SDS011;11168;56.976;24.168;2023-06-04T13:18:26;2.13;;;1.13;;
22007;SDS011;11168;56.976;24.168;2023-06-04T13:20:53;3.10;;;0.80;;
22007;SDS011;11168;56.976;24.168;2023-06-04T13:23:20;1.25;;;0.80;;
22007;SDS011;11168;56.976;24.168;2023-06-04T13:25:52;2.13;;;0.90;;
22007;SDS011;11168;56.976;24.168;2023-06-04T13:28:19;1.17;;;0.70;;
22007;SDS011;11168;56.976;24.168;2023-06-04T13:30:46;0.75;;;0.70;;
22007;SDS011;11168;56.976;24.168;2023-06-04T13:33:13;7.72;;;0.88;;
22007;SDS011;11168;56.976;24.168;2023-06-04T13:35:41;2.35;;;0.73;;
22007;SDS011;11168;56.976;24.168;2023-06-04T13:38:08;2.05;;;1.15;;
22007;SDS011;11168;56.976;24.168;2023-06-04T13:40:35;2.20;;;0.88;;
22007;SDS011;11168;56.976;24.168;2023-06-04T13:43:04;4.07;;;0.90;;
22007;SDS011;11168;56.976;24.168;2023-06-04T13:45:33;2.67;;;0.90;;
22007;SDS011;11168;56.976;24.168;2023-06-04T13:48:00;1.08;;;0.70;;
22007;SDS011;11168;56.976;24.168;2023-06-04T13:50:31;0.77;;;0.55;;
22007;SDS011;11168;56.976;24.168;2023-06-04T13:52:58;1.95;;;0.70;;
22007;SDS011;11168;56.976;24.168;2023-06-04T13:55:25;0.75;;;0.70;;
22007;SDS011;11168;56.976;24.168;2023-06-04T13:57:52;0.50;;;0.50;;
22007;SDS011;11168;56.976;24.168;2023-06-04T14:00:19;0.55;;;0.50;;
22007;SDS011;11168;56.976;24.168;2023-06-04T14:02:47;2.05;;;0.43;;
22007;SDS011;11168;56.976;24.168;2023-06-04T14:05:15;1.20;;;0.50;;
22007;SDS011;11168;56.976;24.168;2023-06-04T14:07:42;2.03;;;0.40;;
22007;SDS011;11168;56.976;24.168;2023-06-04T14:10:12;5.25;;;0.68;;
22007;SDS011;11168;56.976;24.168;2023-06-04T14:12:39;3.22;;;0.40;;
22007;SDS011;11168;56.976;24.168;2023-06-04T14:15:07;1.27;;;0.85;;
22007;SDS011;11168;56.976;24.168;2023-06-04T14:17:35;1.00;;;0.50;;
22007;SDS011;11168;56.976;24.168;2023-06-04T14:20:02;1.10;;;0.77;;
22007;SDS011;11168;56.976;24.168;2023-06-04T14:22:34;3.00;;;1.00;;
22007;SDS011;11168;56.976;24.168;2023-06-04T14:25:04;1.08;;;0.88;;
22007;SDS011;11168;56.976;24.168;2023-06-04T14:27:33;1.42;;;0.90;;
22007;SDS011;11168;56.976;24.168;2023-06-04T14:30:01;1.30;;;0.80;;
22007;SDS011;11168;56.976;24.168;2023-06-04T14:32:29;0.93;;;0.60;;
22007;SDS011;11168;56.976;24.168;2023-06-04T14:34:57;1.23;;;0.60;;
22007;SDS011;11168;56.976;24.168;2023-06-04T14:37:24;1.42;;;0.70;;
22007;SDS011;11168;56.976;24.168;2023-06-04T14:39:51;2.47;;;0.77;;
22007;SDS011;11168;56.976;24.168;2023-06-04T14:42:18;2.03;;;0.80;;
22007;SDS011;11168;56.976;24.168;2023-06-04T14:44:45;0.95;;;0.50;;
22007;SDS011;11168;56.976;24.168;2023-06-04T14:47:12;1.67;;;0.60;;
22007;SDS011;11168;56.976;24.168;2023-06-04T14:49:40;1.20;;;0.77;;
22007;SDS011;11168;56.976;24.168;2023-06-04T14:52:07;2.53;;;0.80;;
22007;SDS011;11168;56.976;24.168;2023-06-04T14:54:35;1.45;;;0.57;;